Time,TemperatureF,DewpointF,PressureIn,WindDirection,WindDirectionDegrees,WindSpeedMPH,WindSpeedGustMPH,Humidity,HourlyPrecipIn,Conditions,Clouds,dailyrainin,SoftwareType,DateUTC
2013-03-02 00:00:00,27.4,26.2,29.84,North,-999,0.0,0.0,95,0.00,,,-99.99,WeatherLink 5.6,2013-03-02 05:00:00,
2013-03-02 00:30:00,27.4,26.2,29.83,North,-999,0.0,0.0,95,0.00,,,-99.99,WeatherLink 5.6,2013-03-02 05:30:00,
2013-03-02 01:00:00,27.1,25.9,29.83,North,-999,0.0,0.0,95,0.00,,,-99.99,WeatherLink 5.6,2013-03-02 06:00:00,
2013-03-02 01:30:00,27.1,25.9,29.83,North,-999,0.0,0.0,95,0.00,,,-99.99,WeatherLink 5.6,2013-03-02 06:30:00,
2013-03-02 02:00:00,26.9,25.7,29.83,North,-999,0.0,0.0,95,0.00,,,-99.99,WeatherLink 5.6,2013-03-02 07:00:00,
2013-03-02 02:30:00,26.7,25.5,29.82,North,-999,0.0,0.0,95,0.00,,,-99.99,WeatherLink 5.6,2013-03-02 07:30:00,
2013-03-02 03:00:00,26.4,24.9,29.81,North,-999,0.0,0.0,94,0.00,,,-99.99,WeatherLink 5.6,2013-03-02 08:00:00,
2013-03-02 03:30:00,26.5,25.0,29.81,North,-999,0.0,0.0,94,0.00,,,-99.99,WeatherLink 5.6,2013-03-02 08:30:00,
2013-03-02 04:00:00,26.2,24.7,29.79,North,-999,0.0,0.0,94,0.00,,,-99.99,WeatherLink 5.6,2013-03-02 09:00:00,
2013-03-02 04:30:00,25.9,24.4,29.80,North,-999,0.0,0.0,94,0.00,,,-99.99,WeatherLink 5.6,2013-03-02 09:30:00,
2013-03-02 05:00:00,25.7,24.2,29.80,North,-999,0.0,0.0,94,0.00,,,-99.99,WeatherLink 5.6,2013-03-02 10:00:00,
2013-03-02 05:30:00,25.5,24.0,29.80,North,-999,0.0,0.0,94,0.00,,,-99.99,WeatherLink 5.6,2013-03-02 10:30:00,
2013-03-02 06:00:00,24.9,23.4,29.81,North,-999,0.0,0.0,94,0.00,,,-99.99,WeatherLink 5.6,2013-03-02 11:00:00,
2013-03-02 06:30:00,24.9,23.4,29.82,North,-999,0.0,0.0,94,0.00,,,-99.99,WeatherLink 5.6,2013-03-02 11:30:00,
2013-03-02 07:00:00,24.8,23.3,29.82,North,-999,0.0,0.0,94,0.00,,,-99.99,WeatherLink 5.6,2013-03-02 12:00:00,
2013-03-02 07:30:00,24.6,23.1,29.82,North,-999,0.0,0.0,94,0.00,,,-99.99,WeatherLink 5.6,2013-03-02 12:30:00,
2013-03-02 08:00:00,23.8,22.3,29.84,North,-999,0.0,0.0,94,0.00,,,-99.99,WeatherLink 5.6,2013-03-02 13:00:00,
2013-03-02 08:30:00,23.4,21.9,29.85,North,-999,0.0,0.0,94,0.00,,,-99.99,WeatherLink 5.6,2013-03-02 13:30:00,
2013-03-02 09:00:00,23.1,21.4,29.84,North,-999,0.0,0.0,93,0.00,,,-99.99,WeatherLink 5.6,2013-03-02 14:00:00,
2013-03-02 09:30:00,23.3,21.6,29.85,North,-999,0.0,0.0,93,0.00,,,-99.99,WeatherLink 5.6,2013-03-02 14:30:00,
2013-03-02 10:00:00,23.6,21.9,29.84,North,-999,0.0,0.0,93,0.00,,,-99.99,WeatherLink 5.6,2013-03-02 15:00:00,
2013-03-02 10:30:00,24.2,22.5,29.85,North,-999,0.0,0.0,93,0.00,,,-99.99,WeatherLink 5.6,2013-03-02 15:30:00,
2013-03-02 11:00:00,23.9,22.2,29.85,North,-999,0.0,0.0,93,0.00,,,-99.99,WeatherLink 5.6,2013-03-02 16:00:00,
2013-03-02 11:30:00,24.2,22.2,29.86,North,-999,0.0,0.0,92,0.00,,,-99.99,WeatherLink 5.6,2013-03-02 16:30:00,
2013-03-02 12:00:00,24.0,22.0,29.86,North,-999,0.0,0.0,92,0.00,,,-99.99,WeatherLink 5.6,2013-03-02 17:00:00,
2013-03-02 12:30:00,23.8,21.8,29.86,North,-999,0.0,0.0,92,0.00,,,-99.99,WeatherLink 5.6,2013-03-02 17:30:00,
2013-03-02 13:00:00,23.6,21.4,29.85,North,-999,0.0,0.0,91,0.00,,,-99.99,WeatherLink 5.6,2013-03-02 18:00:00,
2013-03-02 13:30:00,23.8,21.6,29.85,North,-999,0.0,0.0,91,0.00,,,-99.99,WeatherLink 5.6,2013-03-02 18:30:00,
2013-03-02 14:00:00,23.1,21.1,29.84,North,-999,0.0,0.0,92,0.00,,,-99.99,WeatherLink 5.6,2013-03-02 19:00:00,
2013-03-02 14:30:00,22.6,20.9,29.85,North,-999,0.0,0.0,93,0.00,,,-99.99,WeatherLink 5.6,2013-03-02 19:30:00,
2013-03-02 15:00:00,22.3,20.6,29.85,North,-999,0.0,0.0,93,0.00,,,-99.99,WeatherLink 5.6,2013-03-02 20:00:00,
2013-03-02 15:30:00,22.1,20.4,29.86,North,-999,0.0,0.0,93,0.00,,,-99.99,WeatherLink 5.6,2013-03-02 20:30:00,
2013-03-02 16:00:00,22.0,20.0,29.86,North,-999,0.0,0.0,92,0.00,,,-99.99,WeatherLink 5.6,2013-03-02 21:00:00,
2013-03-02 16:30:00,22.2,20.0,29.86,North,-999,0.0,0.0,91,0.00,,,-99.99,WeatherLink 5.6,2013-03-02 21:30:00,
2013-03-02 17:00:00,22.0,19.8,29.87,North,-999,0.0,0.0,91,0.00,,,-99.99,WeatherLink 5.6,2013-03-02 22:00:00,
2013-03-02 17:30:00,21.6,19.1,29.88,North,-999,0.0,0.0,90,0.00,,,-99.99,WeatherLink 5.6,2013-03-02 22:30:00,
2013-03-02 18:00:00,21.5,18.8,29.90,North,-999,0.0,0.0,89,0.00,,,-99.99,WeatherLink 5.6,2013-03-02 23:00:00,
2013-03-02 18:30:00,21.0,18.0,29.90,North,-999,0.0,0.0,88,0.00,,,-99.99,WeatherLink 5.6,2013-03-02 23:30:00,
2013-03-02 19:00:00,20.9,18.2,29.91,North,-999,0.0,0.0,89,0.00,,,-99.99,WeatherLink 5.6,2013-03-03 00:00:00,
2013-03-02 19:30:00,20.8,18.1,29.92,North,-999,0.0,0.0,89,0.00,,,-99.99,WeatherLink 5.6,2013-03-03 00:30:00,
2013-03-02 20:00:00,20.6,17.9,29.92,North,-999,0.0,0.0,89,0.00,,,-99.99,WeatherLink 5.6,2013-03-03 01:00:00,
2013-03-02 20:30:00,20.6,17.9,29.93,North,-999,0.0,0.0,89,0.00,,,-99.99,WeatherLink 5.6,2013-03-03 01:30:00,
2013-03-02 21:00:00,20.5,17.8,29.93,North,-999,0.0,0.0,89,0.00,,,-99.99,WeatherLink 5.6,2013-03-03 02:00:00,
2013-03-02 21:30:00,20.3,17.6,29.94,North,-999,0.0,0.0,89,0.00,,,-99.99,WeatherLink 5.6,2013-03-03 02:30:00,
2013-03-02 22:00:00,20.2,17.7,29.93,North,-999,0.0,0.0,90,0.00,,,-99.99,WeatherLink 5.6,2013-03-03 03:00:00,
2013-03-02 22:30:00,20.1,17.4,29.94,North,-999,0.0,0.0,89,0.00,,,-99.99,WeatherLink 5.6,2013-03-03 03:30:00,
2013-03-02 23:00:00,20.0,17.8,29.93,North,-999,0.0,0.0,91,0.00,,,-99.99,WeatherLink 5.6,2013-03-03 04:00:00,
2013-03-02 23:30:00,19.6,17.4,29.92,NNW,337,1.0,12.0,91,0.00,,,-99.99,WeatherLink 5.6,2013-03-03 04:30:00,